createdAt,value
2023-03-06T00:00:14.673Z,3.00
2023-03-06T00:00:29.744Z,3.00
2023-03-06T00:00:44.855Z,3.00
2023-03-06T00:01:01.279Z,3.00
2023-03-06T00:01:16.208Z,3.00
2023-03-06T00:01:27.972Z,3.00
2023-03-06T00:01:39.664Z,3.00
2023-03-06T00:01:51.854Z,3.00
2023-03-06T00:02:03.738Z,3.00
2023-03-06T00:02:15.454Z,3.00
2023-03-06T00:02:27.183Z,3.00
2023-03-06T00:02:39.016Z,3.00
2023-03-06T00:02:52.174Z,3.00
2023-03-06T00:03:04.339Z,3.00
2023-03-06T00:03:16.410Z,3.00
2023-03-06T00:03:28.363Z,3.00
2023-03-06T00:03:40.301Z,3.00
2023-03-06T00:03:52.840Z,3.00
2023-03-06T00:04:04.830Z,3.00
2023-03-06T00:04:16.607Z,3.00
2023-03-06T00:04:28.412Z,3.00
2023-03-06T00:04:40.330Z,3.00
2023-03-06T00:04:53.319Z,3.00
2023-03-06T00:05:05.404Z,3.00
2023-03-06T00:05:17.388Z,3.00
2023-03-06T00:05:29.263Z,3.00
2023-03-06T00:05:41.098Z,3.00
2023-03-06T00:05:55.611Z,3.00
2023-03-06T00:06:07.615Z,3.00
2023-03-06T00:06:19.384Z,3.00
2023-03-06T00:06:31.141Z,3.00
2023-03-06T00:06:42.918Z,3.00
2023-03-06T00:06:55.013Z,3.00
2023-03-06T00:07:06.804Z,3.00
2023-03-06T00:07:18.574Z,3.00
2023-03-06T00:07:30.326Z,3.00
2023-03-06T00:07:42.240Z,3.00
2023-03-06T00:07:54.102Z,3.00
2023-03-06T00:08:06.268Z,3.00
2023-03-06T00:08:18.077Z,3.00
2023-03-06T00:08:29.998Z,3.00
2023-03-06T00:08:41.816Z,2.90
2023-03-06T00:08:54.362Z,2.90
2023-03-06T00:09:06.355Z,3.00
2023-03-06T00:09:18.247Z,3.00
2023-03-06T00:09:29.996Z,2.90
2023-03-06T00:09:41.725Z,2.90
2023-03-06T00:09:53.524Z,2.90
2023-03-06T00:10:05.551Z,2.90
2023-03-06T00:10:19.389Z,2.90
2023-03-06T00:10:31.232Z,2.90
2023-03-06T00:10:43.080Z,3.00
2023-03-06T00:10:55.130Z,3.00
2023-03-06T00:11:06.952Z,2.90
2023-03-06T00:11:18.801Z,3.00
2023-03-06T00:11:30.544Z,2.90
2023-03-06T00:11:42.318Z,2.90
2023-03-06T00:11:54.151Z,2.90
2023-03-06T00:12:06.205Z,2.90
2023-03-06T00:12:18.091Z,2.90
2023-03-06T00:12:29.853Z,2.90
2023-03-06T00:12:41.931Z,2.90
2023-03-06T00:12:58.488Z,2.90
2023-03-06T00:13:12.865Z,2.90
2023-03-06T00:13:24.921Z,2.90
2023-03-06T00:13:36.787Z,2.90
2023-03-06T00:13:48.572Z,2.90
2023-03-06T00:14:00.298Z,2.90
2023-03-06T00:14:12.061Z,2.90
2023-03-06T00:14:23.933Z,2.90
2023-03-06T00:14:35.819Z,2.90
2023-03-06T00:14:47.587Z,2.90
2023-03-06T00:14:59.312Z,2.90
2023-03-06T00:15:11.360Z,2.90
2023-03-06T00:15:23.702Z,2.90
2023-03-06T00:15:35.585Z,2.90
2023-03-06T00:15:47.656Z,2.90
2023-03-06T00:16:00.987Z,2.90
2023-03-06T00:16:12.968Z,2.90
2023-03-06T00:16:25.008Z,2.90
2023-03-06T00:16:36.880Z,2.90
2023-03-06T00:16:48.599Z,2.90
2023-03-06T00:17:00.565Z,2.90
2023-03-06T00:17:12.377Z,2.80
2023-03-06T00:17:24.222Z,2.90
2023-03-06T00:17:36.280Z,2.90
2023-03-06T00:17:48.181Z,2.90
2023-03-06T00:18:00.063Z,2.80
2023-03-06T00:18:11.827Z,2.80
2023-03-06T00:18:23.637Z,2.80
2023-03-06T00:18:35.433Z,2.80
2023-03-06T00:18:47.862Z,2.80
2023-03-06T00:18:59.652Z,2.80
2023-03-06T00:19:11.434Z,2.80
2023-03-06T00:19:23.328Z,2.80
2023-03-06T00:19:35.244Z,2.80
2023-03-06T00:19:47.094Z,2.80
2023-03-06T00:19:58.851Z,2.80
2023-03-06T00:20:14.107Z,2.90
2023-03-06T00:20:26.187Z,2.80
2023-03-06T00:20:39.907Z,2.90
2023-03-06T00:20:51.704Z,2.90
2023-03-06T00:21:07.294Z,2.90
2023-03-06T00:21:19.089Z,2.90
2023-03-06T00:21:30.952Z,2.90
2023-03-06T00:21:42.777Z,2.90
2023-03-06T00:21:54.829Z,2.90
2023-03-06T00:22:06.578Z,2.90
2023-03-06T00:22:18.722Z,2.80
2023-03-06T00:22:30.504Z,2.90
2023-03-06T00:22:42.361Z,2.90
2023-03-06T00:22:55.993Z,2.80
2023-03-06T00:23:08.815Z,2.90
2023-03-06T00:23:20.688Z,2.80
2023-03-06T00:23:32.526Z,2.80
2023-03-06T00:23:44.281Z,2.80
2023-03-06T00:23:56.136Z,2.80
2023-03-06T00:24:08.064Z,2.80
2023-03-06T00:24:19.784Z,2.80
2023-03-06T00:24:31.511Z,2.80
2023-03-06T00:24:44.191Z,2.80
2023-03-06T00:24:55.957Z,2.80
2023-03-06T00:25:08.305Z,2.80
2023-03-06T00:25:21.285Z,2.80
2023-03-06T00:25:36.713Z,2.80
2023-03-06T00:25:48.516Z,2.80
2023-03-06T00:26:00.328Z,2.80
2023-03-06T00:26:12.075Z,2.80
2023-03-06T00:26:23.977Z,2.80
2023-03-06T00:26:36.727Z,2.80
2023-03-06T00:26:48.599Z,2.80
2023-03-06T00:27:00.285Z,2.80
2023-03-06T00:27:12.014Z,2.80
2023-03-06T00:27:26.281Z,2.80
2023-03-06T00:27:38.173Z,2.80
2023-03-06T00:27:50.303Z,2.80
2023-03-06T00:28:02.256Z,2.80
2023-03-06T00:28:15.712Z,2.80
2023-03-06T00:28:30.883Z,2.90
2023-03-06T00:28:42.635Z,2.90
2023-03-06T00:28:54.413Z,2.90
2023-03-06T00:29:06.192Z,2.90
2023-03-06T00:29:17.956Z,2.90
2023-03-06T00:29:29.738Z,2.90
2023-03-06T00:29:41.475Z,2.90
2023-03-06T00:29:57.416Z,2.90
2023-03-06T00:30:11.803Z,2.90
2023-03-06T00:30:24.006Z,2.90
2023-03-06T00:30:35.792Z,2.90
2023-03-06T00:30:47.589Z,2.90
2023-03-06T00:30:59.437Z,2.90
2023-03-06T00:31:11.228Z,2.90
2023-03-06T00:31:23.152Z,2.90
2023-03-06T00:31:35.997Z,2.90
2023-03-06T00:31:48.065Z,2.80
2023-03-06T00:32:00.004Z,2.90
2023-03-06T00:32:11.780Z,2.90
2023-03-06T00:32:23.930Z,2.80
2023-03-06T00:32:35.817Z,2.90
2023-03-06T00:32:47.741Z,2.80
2023-03-06T00:32:59.522Z,2.90
2023-03-06T00:33:12.472Z,2.80
2023-03-06T00:33:24.232Z,2.90
2023-03-06T00:33:35.948Z,2.90
2023-03-06T00:33:47.716Z,2.90
2023-03-06T00:33:59.582Z,2.90
2023-03-06T00:34:11.339Z,2.80
2023-03-06T00:34:23.067Z,2.90
2023-03-06T00:34:34.846Z,2.80
2023-03-06T00:34:49.844Z,2.90
2023-03-06T00:35:01.574Z,2.90
2023-03-06T00:35:13.607Z,2.90
2023-03-06T00:35:25.578Z,2.80
2023-03-06T00:35:39.209Z,2.80
2023-03-06T00:35:50.985Z,2.80
2023-03-06T00:36:05.540Z,2.90
2023-03-06T00:36:17.301Z,2.90
2023-03-06T00:36:29.001Z,2.80
2023-03-06T00:36:41.823Z,2.80
2023-03-06T00:36:53.570Z,2.90
2023-03-06T00:37:05.353Z,2.80
2023-03-06T00:37:17.176Z,2.90
2023-03-06T00:37:28.883Z,2.80
2023-03-06T00:37:40.651Z,2.90
2023-03-06T00:37:52.434Z,2.90
2023-03-06T00:38:04.236Z,2.90
2023-03-06T00:38:16.283Z,2.90
2023-03-06T00:38:31.534Z,2.90
2023-03-06T00:38:43.316Z,2.90
2023-03-06T00:38:55.079Z,2.80
2023-03-06T00:39:06.859Z,2.90
2023-03-06T00:39:18.658Z,2.90
2023-03-06T00:39:30.404Z,2.90
2023-03-06T00:39:42.128Z,2.80
2023-03-06T00:39:53.972Z,2.80
2023-03-06T00:40:06.997Z,2.80
2023-03-06T00:40:19.855Z,2.80
2023-03-06T00:40:31.611Z,2.80
2023-03-06T00:40:43.343Z,2.80
2023-03-06T00:40:55.176Z,2.80
2023-03-06T00:41:10.715Z,2.80
2023-03-06T00:41:22.550Z,2.80
2023-03-06T00:41:34.285Z,2.80
2023-03-06T00:41:47.066Z,2.80
2023-03-06T00:41:58.916Z,2.80
2023-03-06T00:42:10.723Z,2.80
2023-03-06T00:42:22.457Z,2.70
2023-03-06T00:42:34.173Z,2.70
2023-03-06T00:42:46.192Z,2.70
2023-03-06T00:42:57.960Z,2.70
2023-03-06T00:43:09.942Z,2.70
2023-03-06T00:43:21.659Z,2.70
2023-03-06T00:43:33.377Z,2.70
2023-03-06T00:43:45.151Z,2.70
2023-03-06T00:43:56.912Z,2.70
2023-03-06T00:44:08.781Z,2.70
2023-03-06T00:44:20.610Z,2.70
2023-03-06T00:44:32.688Z,2.70
2023-03-06T00:44:44.581Z,2.70
2023-03-06T00:44:56.299Z,2.80
2023-03-06T00:45:08.834Z,2.70
2023-03-06T00:45:20.609Z,2.70
2023-03-06T00:45:32.578Z,2.70
2023-03-06T00:45:44.409Z,2.80
2023-03-06T00:45:56.275Z,2.70
2023-03-06T00:46:08.215Z,2.70
2023-03-06T00:46:20.159Z,2.70
2023-03-06T00:46:31.891Z,2.70
2023-03-06T00:46:43.638Z,2.70
2023-03-06T00:46:55.531Z,2.70
2023-03-06T00:47:07.290Z,2.70
2023-03-06T00:47:19.067Z,2.70
2023-03-06T00:47:30.879Z,2.70
2023-03-06T00:47:42.854Z,2.70
2023-03-06T00:47:54.606Z,2.70
2023-03-06T00:48:06.417Z,2.70
2023-03-06T00:48:18.275Z,2.70
2023-03-06T00:48:30.192Z,2.70
2023-03-06T00:48:41.931Z,2.70
2023-03-06T00:48:53.666Z,2.70
2023-03-06T00:49:05.588Z,2.70
2023-03-06T00:49:17.388Z,2.70
2023-03-06T00:49:29.130Z,2.70
2023-03-06T00:49:40.872Z,2.70
2023-03-06T00:49:52.560Z,2.70
2023-03-06T00:50:05.100Z,2.70
2023-03-06T00:50:16.960Z,2.70
2023-03-06T00:50:28.667Z,2.70
2023-03-06T00:50:40.416Z,2.70
2023-03-06T00:50:52.175Z,2.70
2023-03-06T00:51:04.008Z,2.70
2023-03-06T00:51:17.180Z,2.70
2023-03-06T00:51:28.943Z,2.70
2023-03-06T00:51:40.697Z,2.70
2023-03-06T00:51:52.473Z,2.70
2023-03-06T00:52:04.763Z,2.70
2023-03-06T00:52:16.550Z,2.70
2023-03-06T00:52:28.305Z,2.70
2023-03-06T00:52:41.985Z,2.70
2023-03-06T00:52:53.864Z,2.70
2023-03-06T00:53:05.632Z,2.70
2023-03-06T00:53:17.410Z,2.70
2023-03-06T00:53:29.216Z,2.80
2023-03-06T00:53:40.977Z,2.70
2023-03-06T00:53:52.742Z,2.70
2023-03-06T00:54:04.611Z,2.80
2023-03-06T00:54:16.393Z,2.70
2023-03-06T00:54:28.118Z,2.70
2023-03-06T00:54:40.303Z,2.70
2023-03-06T00:54:52.044Z,2.80
2023-03-06T00:55:04.606Z,2.80
2023-03-06T00:55:16.478Z,2.70
2023-03-06T00:55:29.529Z,2.70
2023-03-06T00:55:44.769Z,2.70
2023-03-06T00:55:56.534Z,2.70
2023-03-06T00:56:09.228Z,2.70
2023-03-06T00:56:21.164Z,2.70
2023-03-06T00:56:32.921Z,2.70
2023-03-06T00:56:44.648Z,2.70
2023-03-06T00:56:56.425Z,2.70
2023-03-06T00:57:08.379Z,2.70
2023-03-06T00:57:20.140Z,2.70
2023-03-06T00:57:31.848Z,2.70
2023-03-06T00:57:43.567Z,2.70
2023-03-06T00:57:55.426Z,2.70
2023-03-06T00:58:07.124Z,2.70
2023-03-06T00:58:18.798Z,2.60
2023-03-06T00:58:30.559Z,2.70
2023-03-06T00:58:42.238Z,2.60
2023-03-06T00:58:53.986Z,2.60
2023-03-06T00:59:05.778Z,2.60
2023-03-06T00:59:17.504Z,2.60
2023-03-06T00:59:29.238Z,2.70
2023-03-06T00:59:41.035Z,2.60
2023-03-06T00:59:52.722Z,2.60
2023-03-06T01:00:05.507Z,2.60
2023-03-06T01:00:17.724Z,2.60
2023-03-06T01:00:29.465Z,2.70
2023-03-06T01:00:41.215Z,2.70
2023-03-06T01:00:53.094Z,2.60
2023-03-06T01:01:05.069Z,2.60
2023-03-06T01:01:16.997Z,2.60
2023-03-06T01:01:29.514Z,2.60
2023-03-06T01:01:41.254Z,2.70
2023-03-06T01:01:53.052Z,2.60
2023-03-06T01:02:05.915Z,2.70
2023-03-06T01:02:17.838Z,2.70
2023-03-06T01:02:29.698Z,2.70
2023-03-06T01:02:41.483Z,2.70
2023-03-06T01:02:53.698Z,2.60
2023-03-06T01:03:05.410Z,2.60
2023-03-06T01:03:17.339Z,2.60
2023-03-06T01:03:29.078Z,2.60
2023-03-06T01:03:40.823Z,2.70
2023-03-06T01:03:52.519Z,2.60
2023-03-06T01:04:04.579Z,2.60
2023-03-06T01:04:16.366Z,2.60
2023-03-06T01:04:28.179Z,2.60
2023-03-06T01:04:39.952Z,2.60
2023-03-06T01:04:51.711Z,2.60
2023-03-06T01:05:03.546Z,2.60
2023-03-06T01:05:15.372Z,2.60
2023-03-06T01:05:27.305Z,2.60
2023-03-06T01:05:39.103Z,2.60
2023-03-06T01:05:50.875Z,2.60
2023-03-06T01:06:02.729Z,2.60
2023-03-06T01:06:14.601Z,2.60
2023-03-06T01:06:26.410Z,2.60
2023-03-06T01:06:38.175Z,2.60
2023-03-06T01:06:49.935Z,2.60
2023-03-06T01:07:01.636Z,2.60
2023-03-06T01:07:13.345Z,2.60
2023-03-06T01:07:27.268Z,2.60
2023-03-06T01:07:39.126Z,2.60
2023-03-06T01:07:50.897Z,2.60
2023-03-06T01:08:02.896Z,2.60
2023-03-06T01:08:14.615Z,2.60
2023-03-06T01:08:26.365Z,2.60
2023-03-06T01:08:38.135Z,2.60
2023-03-06T01:08:50.312Z,2.60
2023-03-06T01:09:02.121Z,2.60
2023-03-06T01:09:13.895Z,2.60
2023-03-06T01:09:25.756Z,2.60
2023-03-06T01:09:37.610Z,2.60
2023-03-06T01:09:49.478Z,2.70
2023-03-06T01:10:01.205Z,2.60
2023-03-06T01:10:12.977Z,2.70
2023-03-06T01:10:24.741Z,2.60
2023-03-06T01:10:39.810Z,2.70
2023-03-06T01:10:51.525Z,2.70
2023-03-06T01:11:03.265Z,2.70
2023-03-06T01:11:15.035Z,2.70
2023-03-06T01:11:26.823Z,2.70
2023-03-06T01:11:38.604Z,2.70
2023-03-06T01:11:50.374Z,2.70
2023-03-06T01:12:02.093Z,2.70
2023-03-06T01:12:13.895Z,2.70
2023-03-06T01:12:25.752Z,2.70
2023-03-06T01:12:37.534Z,2.70
2023-03-06T01:12:49.273Z,2.70
2023-03-06T01:13:01.003Z,2.70
2023-03-06T01:13:12.937Z,2.70
2023-03-06T01:13:24.727Z,2.70
2023-03-06T01:13:36.453Z,2.70
2023-03-06T01:13:48.233Z,2.70
2023-03-06T01:14:00.128Z,2.60
2023-03-06T01:14:11.980Z,2.70
2023-03-06T01:14:23.803Z,2.60
2023-03-06T01:14:35.579Z,2.70
2023-03-06T01:14:47.384Z,2.70
2023-03-06T01:14:59.044Z,2.70
2023-03-06T01:15:11.089Z,2.70
2023-03-06T01:15:23.032Z,2.60
2023-03-06T01:15:34.744Z,2.60
2023-03-06T01:15:46.526Z,2.60
2023-03-06T01:16:09.356Z,2.60
2023-03-06T01:16:21.444Z,2.60
2023-03-06T01:16:33.260Z,2.70
2023-03-06T01:16:45.998Z,2.70
2023-03-06T01:16:57.806Z,2.70
2023-03-06T01:17:09.747Z,2.70
2023-03-06T01:17:21.623Z,2.70
2023-03-06T01:17:33.437Z,2.60
2023-03-06T01:17:45.289Z,2.60
2023-03-06T01:17:57.022Z,2.60
2023-03-06T01:18:08.813Z,2.60
2023-03-06T01:18:20.557Z,2.60
2023-03-06T01:18:32.320Z,2.60
2023-03-06T01:18:44.180Z,2.60
2023-03-06T01:18:56.133Z,2.60
2023-03-06T01:19:07.911Z,2.60
2023-03-06T01:19:19.765Z,2.60
2023-03-06T01:19:31.548Z,2.60
2023-03-06T01:19:43.336Z,2.60
2023-03-06T01:19:55.070Z,2.60
2023-03-06T01:20:07.324Z,2.60
2023-03-06T01:20:19.167Z,2.50
2023-03-06T01:20:31.038Z,2.60
2023-03-06T01:20:43.151Z,2.60
2023-03-06T01:20:54.950Z,2.50
2023-03-06T01:21:06.928Z,2.50
2023-03-06T01:21:18.806Z,2.60
2023-03-06T01:21:30.644Z,2.50
2023-03-06T01:21:42.456Z,2.60
2023-03-06T01:21:54.271Z,2.50
2023-03-06T01:22:05.990Z,2.50
2023-03-06T01:22:17.691Z,2.50
2023-03-06T01:22:29.677Z,2.50
2023-03-06T01:22:41.441Z,2.50
2023-03-06T01:22:55.598Z,2.50
2023-03-06T01:23:07.383Z,2.50
2023-03-06T01:23:19.255Z,2.50
2023-03-06T01:23:30.984Z,2.50
2023-03-06T01:23:42.779Z,2.50
2023-03-06T01:23:54.572Z,2.50
2023-03-06T01:24:06.579Z,2.60
2023-03-06T01:24:18.356Z,2.50
2023-03-06T01:24:30.170Z,2.50
2023-03-06T01:24:41.903Z,2.50
2023-03-06T01:24:53.609Z,2.50
2023-03-06T01:25:05.643Z,2.50
2023-03-06T01:25:17.541Z,2.50
2023-03-06T01:25:29.387Z,2.50
2023-03-06T01:25:41.065Z,2.50
2023-03-06T01:25:52.758Z,2.50
2023-03-06T01:26:04.633Z,2.50
2023-03-06T01:26:16.457Z,2.50
2023-03-06T01:26:28.274Z,2.50
2023-03-06T01:26:40.002Z,2.50
2023-03-06T01:26:51.867Z,2.50
2023-03-06T01:27:03.719Z,2.50
2023-03-06T01:27:15.526Z,2.50
2023-03-06T01:27:27.261Z,2.50
2023-03-06T01:27:39.114Z,2.50
2023-03-06T01:27:51.055Z,2.50
2023-03-06T01:28:02.847Z,2.50
2023-03-06T01:28:14.592Z,2.40
2023-03-06T01:28:26.478Z,2.50
2023-03-06T01:28:39.126Z,2.40
2023-03-06T01:28:50.915Z,2.40
2023-03-06T01:29:02.650Z,2.40
2023-03-06T01:29:14.376Z,2.40
2023-03-06T01:29:26.438Z,2.40
2023-03-06T01:29:38.221Z,2.40
2023-03-06T01:29:49.969Z,2.40
2023-03-06T01:30:02.256Z,2.40
2023-03-06T01:30:14.149Z,2.40
2023-03-06T01:30:25.919Z,2.40
2023-03-06T01:30:37.592Z,2.40
2023-03-06T01:30:49.333Z,2.40
2023-03-06T01:31:01.803Z,2.40
2023-03-06T01:31:13.779Z,2.40
2023-03-06T01:31:25.787Z,2.40
2023-03-06T01:31:37.610Z,2.40
2023-03-06T01:31:49.404Z,2.40
2023-03-06T01:32:01.232Z,2.40
2023-03-06T01:32:13.064Z,2.30
2023-03-06T01:32:24.944Z,2.30
2023-03-06T01:32:36.872Z,2.30
2023-03-06T01:32:48.656Z,2.30
2023-03-06T01:33:00.382Z,2.30
2023-03-06T01:33:12.254Z,2.30
2023-03-06T01:33:24.043Z,2.30
2023-03-06T01:33:36.015Z,2.40
2023-03-06T01:33:47.769Z,2.40
2023-03-06T01:33:59.619Z,2.40
2023-03-06T01:34:11.367Z,2.40
2023-03-06T01:34:23.110Z,2.30
2023-03-06T01:34:34.860Z,2.30
2023-03-06T01:34:46.613Z,2.40
2023-03-06T01:34:58.389Z,2.40
2023-03-06T01:35:10.416Z,2.40
2023-03-06T01:35:22.198Z,2.40
2023-03-06T01:35:33.984Z,2.40
2023-03-06T01:35:45.785Z,2.40
2023-03-06T01:35:57.626Z,2.40
2023-03-06T01:36:10.689Z,2.30
2023-03-06T01:36:22.363Z,2.30
2023-03-06T01:36:34.132Z,2.30
2023-03-06T01:36:45.942Z,2.30
2023-03-06T01:36:57.674Z,2.30
2023-03-06T01:37:09.448Z,2.30
2023-03-06T01:37:21.584Z,2.30
2023-03-06T01:37:36.057Z,2.30
2023-03-06T01:37:47.848Z,2.30
2023-03-06T01:37:59.653Z,2.30
2023-03-06T01:38:11.476Z,2.30
2023-03-06T01:38:23.310Z,2.20
2023-03-06T01:38:35.668Z,2.30
2023-03-06T01:38:47.408Z,2.30
2023-03-06T01:38:59.110Z,2.30
2023-03-06T01:39:10.891Z,2.30
2023-03-06T01:39:22.638Z,2.30
2023-03-06T01:39:34.368Z,2.30
2023-03-06T01:39:46.077Z,2.30
2023-03-06T01:39:58.002Z,2.30
2023-03-06T01:40:10.704Z,2.30
2023-03-06T01:40:22.442Z,2.30
2023-03-06T01:40:35.396Z,2.30
2023-03-06T01:40:47.143Z,2.30
2023-03-06T01:40:59.081Z,2.30
2023-03-06T01:41:15.848Z,2.30
2023-03-06T01:41:27.654Z,2.30
2023-03-06T01:41:39.612Z,2.40
2023-03-06T01:41:51.324Z,2.30
2023-03-06T01:42:03.183Z,2.30
2023-03-06T01:42:14.941Z,2.30
2023-03-06T01:42:26.723Z,2.30
2023-03-06T01:42:38.475Z,2.30
2023-03-06T01:42:50.583Z,2.30
2023-03-06T01:43:25.909Z,2.30
2023-03-06T01:43:38.547Z,2.30
2023-03-06T01:43:50.296Z,2.30
2023-03-06T01:44:02.046Z,2.30
2023-03-06T01:44:13.896Z,2.30
2023-03-06T01:44:25.628Z,2.20
2023-03-06T01:44:38.358Z,2.20
2023-03-06T01:45:12.982Z,2.20
2023-03-06T01:45:24.776Z,2.20
2023-03-06T01:45:36.559Z,2.20
2023-03-06T01:45:51.063Z,2.20
2023-03-06T01:46:24.172Z,2.20
2023-03-06T01:46:42.434Z,2.20
2023-03-06T01:46:54.268Z,2.20
2023-03-06T01:47:06.090Z,2.20
2023-03-06T01:47:17.877Z,2.20
2023-03-06T01:47:29.658Z,2.10
2023-03-06T01:47:41.413Z,2.20
2023-03-06T01:47:53.247Z,2.20
2023-03-06T01:48:05.031Z,2.10
2023-03-06T01:48:21.144Z,2.10
2023-03-06T01:48:32.964Z,2.10
2023-03-06T01:48:44.892Z,2.10
2023-03-06T01:49:23.662Z,2.10
2023-03-06T01:49:36.486Z,2.10
2023-03-06T01:49:48.286Z,2.10
2023-03-06T01:50:00.789Z,2.10
2023-03-06T01:50:12.658Z,2.10
2023-03-06T01:50:24.676Z,2.10
2023-03-06T01:50:36.428Z,2.10
2023-03-06T01:50:48.804Z,2.10
2023-03-06T01:51:00.984Z,2.10
2023-03-06T01:51:12.756Z,2.10
2023-03-06T01:51:27.035Z,2.10
2023-03-06T01:51:41.255Z,2.10
2023-03-06T01:52:01.625Z,2.10
2023-03-06T01:52:15.523Z,2.10
2023-03-06T01:52:30.344Z,2.00
2023-03-06T01:52:48.505Z,2.10
2023-03-06T01:53:00.262Z,2.10
2023-03-06T01:53:12.004Z,2.00
2023-03-06T01:53:23.769Z,2.10
2023-03-06T01:53:35.516Z,2.10
2023-03-06T01:53:47.231Z,2.10
2023-03-06T01:54:00.468Z,2.10
2023-03-06T01:54:14.933Z,2.10
2023-03-06T01:54:31.031Z,2.10
2023-03-06T01:54:48.659Z,2.10
2023-03-06T01:55:09.146Z,2.00
2023-03-06T01:55:22.796Z,2.00
2023-03-06T01:55:34.635Z,2.00
2023-03-06T01:55:46.467Z,2.00
2023-03-06T01:55:58.145Z,2.00
2023-03-06T01:56:11.089Z,2.00
2023-03-06T01:56:22.827Z,2.00
2023-03-06T01:56:34.657Z,2.00
2023-03-06T01:56:46.894Z,2.00
2023-03-06T01:57:07.264Z,2.00
2023-03-06T01:57:23.111Z,2.00
2023-03-06T01:57:43.026Z,2.00
2023-03-06T01:57:57.623Z,1.90
2023-03-06T01:58:12.617Z,2.00
2023-03-06T01:58:24.397Z,2.00
2023-03-06T01:58:36.228Z,1.90
2023-03-06T01:58:49.599Z,1.90
2023-03-06T01:59:01.386Z,2.00
2023-03-06T01:59:13.342Z,1.90
2023-03-06T01:59:26.810Z,1.90
2023-03-06T01:59:38.547Z,1.90
2023-03-06T01:59:53.099Z,1.90
2023-03-06T02:00:14.641Z,2.00
2023-03-06T02:00:28.170Z,1.90
2023-03-06T02:00:40.104Z,1.90
2023-03-06T02:00:51.920Z,2.00
2023-03-06T02:01:03.717Z,2.00
2023-03-06T02:01:15.538Z,1.90
2023-03-06T02:01:27.371Z,2.00
2023-03-06T02:01:39.964Z,2.00
2023-03-06T02:01:51.804Z,1.90
2023-03-06T02:02:03.811Z,1.90
2023-03-06T02:02:15.807Z,2.00
2023-03-06T02:02:28.073Z,1.90
2023-03-06T02:02:41.301Z,1.90
2023-03-06T02:02:55.191Z,1.90
2023-03-06T02:03:12.594Z,1.90
2023-03-06T02:03:25.666Z,1.90
2023-03-06T02:03:37.595Z,2.00
2023-03-06T02:03:49.884Z,1.90
2023-03-06T02:04:02.136Z,1.90
2023-03-06T02:04:13.950Z,1.90
2023-03-06T02:04:25.725Z,1.90
2023-03-06T02:04:39.068Z,1.90
2023-03-06T02:04:50.882Z,1.90
2023-03-06T02:05:02.739Z,1.90
2023-03-06T02:05:14.484Z,1.90
2023-03-06T02:05:26.287Z,1.90
2023-03-06T02:05:38.606Z,1.90
2023-03-06T02:05:50.381Z,1.90
2023-03-06T02:06:02.130Z,1.90
2023-03-06T02:06:19.519Z,1.90
2023-03-06T02:06:31.844Z,1.90
2023-03-06T02:06:43.624Z,1.90
2023-03-06T02:06:55.519Z,1.90
2023-03-06T02:07:07.410Z,1.90
2023-03-06T02:07:19.731Z,1.80
2023-03-06T02:07:31.520Z,1.90
2023-03-06T02:07:43.567Z,1.80
2023-03-06T02:07:55.302Z,1.80
2023-03-06T02:08:07.185Z,1.80
2023-03-06T02:08:20.244Z,1.80
2023-03-06T02:08:32.022Z,1.80
2023-03-06T02:08:43.785Z,1.90
2023-03-06T02:08:55.510Z,1.80
2023-03-06T02:09:07.402Z,1.80
2023-03-06T02:09:19.229Z,1.80
2023-03-06T02:09:32.710Z,1.80
2023-03-06T02:09:46.025Z,1.80
2023-03-06T02:09:57.806Z,1.90
2023-03-06T02:10:10.140Z,1.80
2023-03-06T02:10:22.013Z,1.80
2023-03-06T02:10:34.027Z,1.90
2023-03-06T02:11:18.058Z,1.90
2023-03-06T02:11:29.833Z,1.80
2023-03-06T02:11:46.211Z,1.80
2023-03-06T02:11:59.196Z,1.80
2023-03-06T02:12:16.680Z,1.80
2023-03-06T02:12:28.438Z,1.80
2023-03-06T02:12:40.912Z,1.80
2023-03-06T02:12:52.684Z,1.80
2023-03-06T02:13:04.386Z,1.80
2023-03-06T02:13:16.083Z,1.90
2023-03-06T02:13:28.873Z,1.80
2023-03-06T02:13:40.742Z,1.90
2023-03-06T02:13:53.473Z,1.80
2023-03-06T02:14:05.305Z,1.90
2023-03-06T02:14:17.182Z,1.90
2023-03-06T02:14:29.032Z,1.90
2023-03-06T02:14:40.837Z,1.90
2023-03-06T02:14:52.597Z,1.80
2023-03-06T02:15:04.696Z,1.80
2023-03-06T02:15:17.855Z,1.80
2023-03-06T02:15:29.807Z,1.80
2023-03-06T02:15:41.515Z,1.80
2023-03-06T02:15:53.257Z,1.80
2023-03-06T02:16:05.414Z,1.80
2023-03-06T02:16:17.371Z,1.80
2023-03-06T02:16:31.187Z,1.80
2023-03-06T02:16:43.009Z,1.80
2023-03-06T02:16:54.802Z,1.80
2023-03-06T02:17:07.489Z,1.80
2023-03-06T02:17:20.524Z,1.80
2023-03-06T02:17:32.235Z,1.80
2023-03-06T02:17:45.527Z,1.80
2023-03-06T02:17:57.366Z,1.80
2023-03-06T02:18:09.085Z,1.80
2023-03-06T02:18:20.811Z,1.80
2023-03-06T02:18:33.332Z,1.80
2023-03-06T02:18:45.124Z,1.80
2023-03-06T02:18:58.226Z,1.80
2023-03-06T02:19:18.677Z,1.80
2023-03-06T02:19:55.335Z,1.80
2023-03-06T02:20:23.662Z,1.70
2023-03-06T02:20:43.966Z,1.70
2023-03-06T02:20:57.863Z,1.80
2023-03-06T02:21:11.187Z,1.80
2023-03-06T02:21:28.782Z,1.80
2023-03-06T02:21:40.531Z,1.80
2023-03-06T02:21:52.374Z,1.70
2023-03-06T02:22:04.256Z,1.70
2023-03-06T02:22:15.983Z,1.80
2023-03-06T02:22:33.554Z,1.80
2023-03-06T02:22:55.940Z,1.70
2023-03-06T02:23:07.611Z,1.70
2023-03-06T02:23:56.518Z,1.70
2023-03-06T02:24:37.160Z,1.70
2023-03-06T02:25:10.346Z,1.70
2023-03-06T02:25:43.865Z,1.70
2023-03-06T02:25:55.627Z,1.80
2023-03-06T02:26:07.430Z,1.80
2023-03-06T02:26:19.232Z,1.80
2023-03-06T02:26:31.084Z,1.80
2023-03-06T02:26:42.832Z,1.80
2023-03-06T02:26:54.672Z,1.80
2023-03-06T02:27:06.399Z,1.80
2023-03-06T02:27:18.129Z,1.80
2023-03-06T02:27:29.921Z,1.80
2023-03-06T02:27:43.091Z,1.80
2023-03-06T02:27:54.929Z,1.80
2023-03-06T02:28:08.082Z,1.80
2023-03-06T02:28:21.327Z,1.80
2023-03-06T02:28:33.085Z,1.80
2023-03-06T02:28:44.836Z,1.80
2023-03-06T02:28:58.546Z,1.80
2023-03-06T02:29:10.300Z,1.80
2023-03-06T02:29:24.214Z,1.80
2023-03-06T02:29:36.022Z,1.80
2023-03-06T02:29:47.835Z,1.80
2023-03-06T02:29:59.550Z,1.70
2023-03-06T02:30:12.658Z,1.70
2023-03-06T02:30:25.447Z,1.80
2023-03-06T02:30:37.359Z,1.70
2023-03-06T02:30:50.559Z,1.70
2023-03-06T02:31:02.423Z,1.80
2023-03-06T02:31:24.952Z,1.70
2023-03-06T02:31:36.634Z,1.70
2023-03-06T02:31:48.441Z,1.70
2023-03-06T02:32:00.235Z,1.70
2023-03-06T02:32:12.002Z,1.70
2023-03-06T02:32:23.735Z,1.70
2023-03-06T02:32:35.524Z,1.70
2023-03-06T02:32:47.277Z,1.70
2023-03-06T02:32:59.720Z,1.70
2023-03-06T02:33:15.245Z,1.70
2023-03-06T02:33:28.442Z,1.70
2023-03-06T02:33:40.176Z,1.70
2023-03-06T02:34:20.831Z,1.70
2023-03-06T02:34:38.358Z,1.70
2023-03-06T02:34:52.891Z,1.70
2023-03-06T02:35:05.047Z,1.70
2023-03-06T02:35:25.318Z,1.70
2023-03-06T02:35:37.209Z,1.70
2023-03-06T02:36:05.502Z,1.70
2023-03-06T02:36:17.198Z,1.70
2023-03-06T02:36:29.029Z,1.70
2023-03-06T02:36:46.433Z,1.70
2023-03-06T02:37:00.866Z,1.70
2023-03-06T02:37:12.576Z,1.70
2023-03-06T02:37:25.161Z,1.70
2023-03-06T02:37:36.916Z,1.70
2023-03-06T02:37:48.634Z,1.70
2023-03-06T02:38:04.813Z,1.70
2023-03-06T02:38:18.044Z,1.70
2023-03-06T02:38:36.375Z,1.70
2023-03-06T02:38:49.442Z,1.70
2023-03-06T02:39:01.211Z,1.70
2023-03-06T02:39:12.984Z,1.70
2023-03-06T02:39:26.767Z,1.70
2023-03-06T02:39:43.235Z,1.70
2023-03-06T02:39:59.099Z,1.70
2023-03-06T02:40:12.381Z,1.70
2023-03-06T02:40:24.345Z,1.60
2023-03-06T02:40:36.687Z,1.70
2023-03-06T02:40:49.678Z,1.70
2023-03-06T02:41:02.182Z,1.70
2023-03-06T02:41:13.987Z,1.70
2023-03-06T02:41:25.813Z,1.60
2023-03-06T02:41:37.600Z,1.70
2023-03-06T02:41:49.379Z,1.70
2023-03-06T02:42:01.105Z,1.70
2023-03-06T02:42:31.506Z,1.70
2023-03-06T02:42:48.372Z,1.70
2023-03-06T02:43:00.143Z,1.70
2023-03-06T02:43:12.992Z,1.70
2023-03-06T02:43:26.540Z,1.70
2023-03-06T02:43:38.964Z,1.60
2023-03-06T02:43:50.685Z,1.60
2023-03-06T02:44:02.445Z,1.60
2023-03-06T02:44:14.203Z,1.60
2023-03-06T02:44:26.151Z,1.60
2023-03-06T02:44:37.885Z,1.60
2023-03-06T02:44:49.758Z,1.60
2023-03-06T02:45:01.874Z,1.60
2023-03-06T02:45:13.576Z,1.60
2023-03-06T02:45:39.115Z,1.60
2023-03-06T02:45:51.140Z,1.60
2023-03-06T02:46:03.010Z,1.60
2023-03-06T02:46:14.842Z,1.60
2023-03-06T02:46:26.574Z,1.60
2023-03-06T02:46:38.433Z,1.60
2023-03-06T02:46:50.123Z,1.60
2023-03-06T02:47:01.955Z,1.60
2023-03-06T02:47:13.708Z,1.60
2023-03-06T02:47:25.562Z,1.60
2023-03-06T02:47:37.342Z,1.60
2023-03-06T02:47:49.013Z,1.60
2023-03-06T02:48:00.808Z,1.60
2023-03-06T02:48:13.259Z,1.60
2023-03-06T02:48:25.001Z,1.60
2023-03-06T02:48:36.753Z,1.60
2023-03-06T02:48:48.473Z,1.60
2023-03-06T02:49:00.169Z,1.60
2023-03-06T02:49:11.876Z,1.50
2023-03-06T02:49:26.125Z,1.50
2023-03-06T02:49:38.208Z,1.60
2023-03-06T02:49:49.940Z,1.50
2023-03-06T02:50:01.850Z,1.60
2023-03-06T02:50:13.604Z,1.60
2023-03-06T02:50:25.484Z,1.60
2023-03-06T02:50:37.202Z,1.50